CDT,Max TemperatureF,Mean TemperatureF,Min TemperatureF,Max Dew PointF,MeanDew PointF,Min DewpointF,Max Humidity, Mean Humidity, Min Humidity, Max Sea Level PressureIn, Mean Sea Level PressureIn, Min Sea Level PressureIn, Max VisibilityMiles, Mean VisibilityMiles, Min VisibilityMiles, Max Wind SpeedMPH, Mean Wind SpeedMPH, Max Gust SpeedMPH,PrecipitationIn, CloudCover, Events, WindDirDegrees
2013-10-1,77,65,53,57,52,43,88,62,29,30.00,29.86,29.77,10,10,9,12,7,20,0.00,0,,223
2013-10-2,75,60,44,54,45,36,100,60,27,30.09,30.01,29.89,10,10,7,13,4,21,0.00,1,,136
2013-10-3,71,66,60,68,63,54,100,91,72,29.92,29.85,29.79,10,7,0,13,6,23,0.68,6,Fog-Rain,117
2013-10-4,71,66,62,66,64,63,100,94,78,29.94,29.88,29.82,10,7,0,18,6,25,0.18,6,Fog-Rain,91
2013-10-5,69,58,48,66,54,39,100,78,55,29.86,29.81,29.76,10,10,5,14,7,22,0.00,6,Rain,176
2013-10-6,48,45,42,46,41,37,100,83,66,29.79,29.74,29.71,10,10,2,7,1,,0.02,7,Rain,233
2013-10-7,68,55,42,48,42,37,100,70,33,30.05,29.93,29.79,10,10,4,16,5,26,0.00,1,Rain,312
2013-10-8,75,62,48,46,43,39,82,56,27,30.07,30.03,29.99,10,10,10,17,8,28,0.00,0,,176
2013-10-9,73,63,53,48,46,41,77,58,31,30.15,30.10,30.05,10,10,9,13,9,20,0.00,0,,169
2013-10-10,73,60,46,52,47,43,87,67,41,30.11,30.05,29.97,10,10,10,13,6,18,0.00,0,,152
2013-10-11,73,63,53,57,52,50,94,68,47,29.98,29.88,29.79,10,10,5,21,10,33,0.00,3,,150
2013-10-12,68,56,42,57,40,32,77,55,32,30.21,30.00,29.80,10,10,8,13,8,26,0.00,2,Rain,249
2013-10-13,60,48,37,39,33,30,87,61,31,30.42,30.35,30.22,10,10,8,10,1,14,0.00,1,,342
2013-10-14,62,48,33,45,37,32,100,66,37,30.40,30.24,30.00,10,10,7,16,5,24,0.01,1,Rain,128
2013-10-15,57,52,46,55,46,41,100,86,67,29.98,29.80,29.75,10,8,2,17,11,26,0.29,8,Rain,189
2013-10-16,50,44,39,48,44,39,100,90,81,29.94,29.88,29.76,10,9,2,12,7,18,0.00,8,,316
2013-10-17,57,46,35,43,37,32,100,74,38,29.93,29.84,29.80,10,9,2,9,2,15,0.00,4,,244
2013-10-18,50,44,35,43,34,27,93,68,40,29.97,29.91,29.83,10,10,3,16,7,23,0.00,5,Rain,303
2013-10-19,48,40,33,39,33,27,93,76,62,29.89,29.79,29.72,10,10,2,10,3,32,0.01,5,Rain,245
2013-10-20,51,40,28,43,34,27,93,78,62,29.85,29.75,29.65,10,10,6,14,4,26,0.01,5,Rain,221
2013-10-21,39,34,28,32,24,18,87,63,45,29.96,29.93,29.85,10,10,10,16,9,32,0.00,6,Rain-Snow,302
2013-10-22,42,33,24,28,25,21,93,75,49,30.00,29.96,29.92,10,10,10,15,3,22,0.00,5,Snow,332
2013-10-23,39,34,28,30,25,19,93,70,45,30.06,30.01,29.97,10,10,10,13,4,21,0.00,7,Rain,306
2013-10-24,41,36,30,25,22,19,80,60,45,30.32,30.20,30.06,10,10,10,12,7,21,0.00,6,Rain,314
2013-10-25,51,38,26,30,27,23,93,63,37,30.33,30.17,29.88,10,10,9,17,5,34,0.00,2,,221
2013-10-26,50,42,33,36,29,25,76,59,40,30.09,29.97,29.82,10,10,10,20,10,30,0.00,2,,304
2013-10-27,57,42,28,30,28,25,93,62,33,30.06,29.95,29.85,10,10,9,17,4,21,0.00,1,,212
2013-10-28,42,38,35,32,29,28,81,67,57,30.36,30.26,30.02,10,10,10,15,9,25,0.00,7,Snow,61
2013-10-29,53,45,37,39,34,28,75,65,51,30.35,30.20,30.06,10,10,6,14,7,21,0.00,6,,104
2013-10-30,59,54,48,54,48,39,100,88,66,30.05,29.90,29.66,10,6,0,15,6,32,0.01,6,Fog-Rain,126
2013-10-31,55,47,39,55,46,37,100,95,81,29.65,29.48,29.39,10,5,0,12,5,20,0.07,8,Fog-Rain,293